Time;durP1;ratioP1;P1;durP2;ratioP2;P2;SDS_P1;SDS_P2;PMS_P1;PMS_P2;Temp;Humidity;BMP_temperature;BMP_pressure;BME280_temperature;BME280_humidity;BME280_pressure;Samples;Min_cycle;Max_cycle;Signal;HPM_P1;HPM_P2
2023/11/26 00:01:42;;;;;;;1.25;0.90;;;9.70;99.90;;;;;;4974595;28;20134;-79
2023/11/26 00:04:08;;;;;;;1.42;0.85;;;9.70;99.90;;;;;;4974642;28;20023;-79
2023/11/26 00:06:34;;;;;;;5.07;0.70;;;9.70;99.90;;;;;;4974244;28;20073;-79
2023/11/26 00:09:00;;;;;;;0.70;0.70;;;9.70;99.90;;;;;;4972077;28;20026;-79
2023/11/26 00:11:25;;;;;;;2.47;0.80;;;9.70;99.90;;;;;;4974474;28;20102;-78
2023/11/26 00:13:51;;;;;;;1.42;0.68;;;9.70;99.90;;;;;;4974546;28;20030;-79
2023/11/26 00:16:17;;;;;;;1.10;0.80;;;9.70;99.90;;;;;;4974268;28;20031;-78
2023/11/26 00:18:42;;;;;;;1.67;0.70;;;9.70;99.90;;;;;;4974316;28;20540;-79
2023/11/26 00:21:08;;;;;;;2.60;0.70;;;9.70;99.90;;;;;;4974643;28;20019;-78
2023/11/26 00:23:33;;;;;;;0.68;0.68;;;9.70;99.90;;;;;;4973162;28;20023;-78
2023/11/26 00:25:59;;;;;;;4.93;0.80;;;9.70;99.90;;;;;;4973776;28;20022;-78
2023/11/26 00:28:24;;;;;;;0.90;0.90;;;9.70;99.90;;;;;;4973245;28;20057;-78
2023/11/26 00:30:50;;;;;;;2.30;1.02;;;9.70;99.90;;;;;;4972171;28;20101;-79
2023/11/26 00:33:18;;;;;;;0.88;0.80;;;9.70;99.90;;;;;;4972673;28;20416;-79
2023/11/26 00:35:44;;;;;;;0.80;0.80;;;9.70;99.90;;;;;;4972811;28;20026;-78
2023/11/26 00:38:10;;;;;;;0.90;0.70;;;9.70;99.90;;;;;;4973962;28;20026;-78
2023/11/26 00:40:35;;;;;;;1.00;0.90;;;9.70;99.90;;;;;;4978101;28;20033;-79
2023/11/26 00:43:01;;;;;;;2.85;0.82;;;9.70;99.90;;;;;;4972900;28;20420;-77
2023/11/26 00:45:26;;;;;;;1.05;1.00;;;9.70;99.90;;;;;;4974552;28;20551;-79
2023/11/26 00:47:52;;;;;;;0.80;0.80;;;9.70;99.90;;;;;;4973854;28;20023;-78
2023/11/26 00:50:18;;;;;;;0.80;0.80;;;9.70;99.90;;;;;;4973323;28;20015;-78
2023/11/26 00:52:45;;;;;;;1.20;1.10;;;9.70;99.90;;;;;;4973626;28;20031;-79
2023/11/26 00:55:11;;;;;;;1.35;0.82;;;9.70;99.90;;;;;;4975037;28;20027;-79
2023/11/26 00:57:36;;;;;;;1.25;0.77;;;9.70;99.90;;;;;;4980524;28;20113;-78
2023/11/26 01:00:06;;;;;;;1.25;1.10;;;9.70;99.90;;;;;;4978612;28;20555;-79
2023/11/26 01:02:33;;;;;;;;;;;9.70;99.90;;;;;;4973531;28;20411;-78
2023/11/26 01:04:58;;;;;;;2.10;1.02;;;9.70;99.90;;;;;;4970475;28;19906;-77
2023/11/26 01:07:24;;;;;;;0.80;0.80;;;9.70;99.90;;;;;;4970943;28;20146;-79
2023/11/26 01:09:49;;;;;;;1.33;0.70;;;9.70;99.90;;;;;;4972404;28;20035;-78
2023/11/26 01:12:15;;;;;;;1.42;0.95;;;9.70;99.90;;;;;;4971217;28;20038;-78
2023/11/26 01:14:41;;;;;;;0.90;0.80;;;9.70;99.90;;;;;;4973688;28;20023;-78
2023/11/26 01:17:06;;;;;;;1.17;1.00;;;9.70;99.90;;;;;;4973453;28;20029;-78
2023/11/26 01:19:32;;;;;;;1.75;0.82;;;9.70;99.90;;;;;;4973198;28;20122;-78
2023/11/26 01:21:57;;;;;;;1.35;0.85;;;9.70;99.90;;;;;;4973606;28;20097;-78
2023/11/26 01:24:23;;;;;;;0.80;0.80;;;9.70;99.90;;;;;;4973565;28;20049;-79
2023/11/26 01:26:48;;;;;;;1.80;0.90;;;9.70;99.90;;;;;;4973046;28;20023;-79
2023/11/26 01:29:14;;;;;;;1.65;0.98;;;9.70;99.90;;;;;;4977589;28;20487;-78
2023/11/26 01:31:39;;;;;;;1.45;1.05;;;9.70;99.90;;;;;;4972524;28;20503;-78
2023/11/26 01:34:05;;;;;;;1.23;1.00;;;9.70;99.90;;;;;;4971078;28;20039;-77
2023/11/26 01:36:31;;;;;;;0.85;0.85;;;9.70;99.90;;;;;;4970871;28;20050;-78
2023/11/26 01:38:56;;;;;;;0.77;0.77;;;9.70;99.90;;;;;;4970567;28;20030;-78
2023/11/26 01:41:22;;;;;;;1.10;1.00;;;9.70;99.90;;;;;;4976243;28;20027;-79
2023/11/26 01:43:47;;;;;;;0.95;0.90;;;9.70;99.90;;;;;;4973886;28;20110;-77
2023/11/26 01:46:14;;;;;;;1.52;1.02;;;9.70;99.90;;;;;;4969507;28;20023;-80
2023/11/26 01:48:40;;;;;;;2.38;0.80;;;9.70;99.90;;;;;;4971088;28;20031;-79
2023/11/26 01:51:08;;;;;;;1.45;1.25;;;9.70;99.90;;;;;;4973267;28;20025;-78
2023/11/26 01:53:38;;;;;;;1.33;1.23;;;9.70;99.90;;;;;;4971239;28;20053;-78
2023/11/26 01:56:04;;;;;;;1.80;1.07;;;9.70;99.90;;;;;;4971217;28;20015;-78
2023/11/26 01:58:31;;;;;;;1.08;0.98;;;9.70;99.90;;;;;;4970661;28;20265;-79
2023/11/26 02:00:57;;;;;;;3.08;0.90;;;9.70;99.90;;;;;;4971629;28;20069;-78
2023/11/26 02:03:22;;;;;;;1.00;1.00;;;9.70;99.90;;;;;;4971461;28;20103;-78
2023/11/26 02:05:49;;;;;;;1.35;1.10;;;9.70;99.90;;;;;;4974335;28;20065;-78
2023/11/26 02:08:16;;;;;;;1.02;0.98;;;9.70;99.90;;;;;;4968251;28;20086;-77
2023/11/26 02:10:43;;;;;;;1.90;1.30;;;9.70;99.90;;;;;;4971309;28;20122;-77
2023/11/26 02:13:09;;;;;;;1.10;1.00;;;9.70;99.90;;;;;;4970806;28;20078;-77
2023/11/26 02:15:35;;;;;;;0.95;0.82;;;9.70;99.90;;;;;;4971275;28;20019;-78
2023/11/26 02:18:01;;;;;;;1.42;0.90;;;9.70;99.90;;;;;;4969788;28;20027;-78
2023/11/26 02:20:27;;;;;;;1.85;1.20;;;9.70;99.90;;;;;;4971145;28;20031;-78
2023/11/26 02:22:53;;;;;;;2.38;1.00;;;9.70;99.90;;;;;;4971235;28;20130;-79
2023/11/26 02:25:20;;;;;;;2.00;1.15;;;9.60;99.90;;;;;;4970922;28;20114;-77
2023/11/26 02:27:46;;;;;;;2.40;1.05;;;9.60;99.90;;;;;;4971446;28;20046;-80
2023/11/26 02:30:13;;;;;;;1.10;1.00;;;9.60;99.90;;;;;;4971328;28;20039;-77
2023/11/26 02:32:39;;;;;;;2.40;1.15;;;9.60;99.90;;;;;;4971497;28;20023;-80
2023/11/26 02:35:05;;;;;;;1.50;1.23;;;9.60;99.90;;;;;;4968825;28;20030;-77
2023/11/26 02:37:30;;;;;;;1.35;1.25;;;9.70;99.90;;;;;;4970811;28;20023;-77
2023/11/26 02:39:56;;;;;;;1.17;1.08;;;9.60;99.90;;;;;;4970176;28;20113;-78
2023/11/26 02:42:22;;;;;;;2.03;1.20;;;9.60;99.90;;;;;;4968815;28;20027;-78
2023/11/26 02:44:49;;;;;;;1.00;0.90;;;9.60;99.90;;;;;;4971117;28;20023;-78
2023/11/26 02:47:14;;;;;;;1.20;1.10;;;9.60;99.90;;;;;;4971395;28;20026;-77
2023/11/26 02:49:42;;;;;;;1.27;0.95;;;9.60;99.90;;;;;;4971954;28;20179;-78
2023/11/26 02:52:09;;;;;;;0.93;0.93;;;9.60;99.90;;;;;;4971163;28;20022;-79
2023/11/26 02:54:34;;;;;;;2.65;1.40;;;9.60;99.90;;;;;;4972077;28;20034;-78
2023/11/26 02:57:00;;;;;;;4.68;1.27;;;9.60;99.90;;;;;;4970342;28;20022;-78
2023/11/26 02:59:25;;;;;;;1.95;1.25;;;9.60;99.90;;;;;;4971631;28;20029;-78
2023/11/26 03:01:57;;;;;;;2.72;1.20;;;9.60;99.90;;;;;;4965655;28;20058;-78
2023/11/26 03:04:23;;;;;;;1.98;1.10;;;9.60;99.90;;;;;;4971984;28;20498;-78
2023/11/26 03:06:49;;;;;;;1.70;1.10;;;9.60;99.90;;;;;;4967534;28;20480;-77
2023/11/26 03:12:54;;;;;;;2.60;1.10;;;9.60;99.90;;;;;;4975143;28;20108;-78
2023/11/26 03:14:59;;;;;;;3.55;1.20;;;9.60;99.90;;;;;;4969520;28;20440;-77
2023/11/26 03:17:25;;;;;;;2.67;1.17;;;9.60;99.90;;;;;;4975163;28;20027;-78
2023/11/26 03:19:51;;;;;;;1.33;1.23;;;9.60;99.90;;;;;;4975229;28;20022;-78
2023/11/26 03:22:17;;;;;;;0.90;0.90;;;9.60;99.90;;;;;;4978444;28;20033;-77
2023/11/26 03:24:43;;;;;;;1.30;1.20;;;9.60;99.90;;;;;;4974783;28;20449;-79
2023/11/26 03:27:09;;;;;;;3.22;1.13;;;9.60;99.90;;;;;;4973995;28;20025;-77
2023/11/26 03:29:34;;;;;;;1.70;1.38;;;9.60;99.90;;;;;;4974802;28;20423;-77
2023/11/26 03:32:00;;;;;;;1.20;0.98;;;9.60;99.90;;;;;;4973289;28;20054;-77
2023/11/26 03:34:28;;;;;;;2.05;1.30;;;9.60;99.90;;;;;;4973810;28;20034;-77
2023/11/26 03:36:54;;;;;;;1.05;0.95;;;9.60;99.90;;;;;;4971981;28;20034;-77
2023/11/26 03:39:20;;;;;;;1.23;1.02;;;9.60;99.90;;;;;;4974556;28;20023;-77
2023/11/26 03:41:48;;;;;;;2.42;1.20;;;9.60;99.90;;;;;;4975037;28;20025;-79
2023/11/26 03:44:14;;;;;;;1.50;1.23;;;9.60;99.90;;;;;;4974835;28;20369;-77
2023/11/26 03:46:40;;;;;;;1.80;1.20;;;9.70;99.90;;;;;;4970792;28;20424;-77
2023/11/26 03:49:06;;;;;;;1.05;0.88;;;9.60;99.90;;;;;;4976892;28;20026;-77
2023/11/26 03:51:32;;;;;;;1.70;1.60;;;9.60;99.90;;;;;;4974476;28;20077;-79
2023/11/26 03:53:58;;;;;;;0.90;0.90;;;9.60;99.90;;;;;;4973184;28;20015;-78
2023/11/26 03:56:24;;;;;;;1.33;1.10;;;9.60;99.90;;;;;;4974379;28;20027;-78
2023/11/26 03:58:50;;;;;;;1.35;1.10;;;9.60;99.90;;;;;;4967941;28;20026;-77
2023/11/26 04:01:15;;;;;;;4.22;1.10;;;9.60;99.90;;;;;;4973372;28;20031;-78
2023/11/26 04:03:41;;;;;;;2.60;1.40;;;9.60;99.90;;;;;;4973827;28;20189;-77
2023/11/26 04:06:07;;;;;;;0.90;0.90;;;9.60;99.90;;;;;;4974494;28;20023;-77
2023/11/26 04:08:32;;;;;;;2.60;1.20;;;9.60;99.90;;;;;;4979652;28;20023;-78
2023/11/26 04:10:58;;;;;;;1.38;1.25;;;9.60;99.90;;;;;;4968998;28;20038;-78
2023/11/26 04:13:27;;;;;;;2.33;1.27;;;9.60;99.90;;;;;;4975573;28;20034;-78
2023/11/26 04:15:57;;;;;;;1.20;1.10;;;9.60;99.90;;;;;;4970768;28;20030;-79
2023/11/26 04:18:23;;;;;;;;;;;9.60;99.90;;;;;;4973838;28;20019;-76
2023/11/26 04:20:50;;;;;;;2.10;1.10;;;9.60;99.90;;;;;;4974287;28;20264;-78
2023/11/26 04:23:18;;;;;;;1.20;0.90;;;9.60;99.90;;;;;;4974571;28;20025;-78
2023/11/26 04:25:44;;;;;;;1.75;1.42;;;9.60;99.90;;;;;;4971856;28;20114;-78
2023/11/26 04:28:10;;;;;;;1.55;1.35;;;9.60;99.90;;;;;;4974126;28;20019;-78
2023/11/26 04:30:36;;;;;;;1.40;1.25;;;9.60;99.90;;;;;;4974199;28;20109;-78
2023/11/26 04:33:02;;;;;;;1.23;1.15;;;9.60;99.90;;;;;;4974273;28;20058;-78
2023/11/26 04:35:27;;;;;;;2.67;1.20;;;9.60;99.90;;;;;;4977907;28;20154;-77
2023/11/26 04:37:53;;;;;;;2.35;1.45;;;9.60;99.90;;;;;;4975857;28;20560;-77
2023/11/26 04:40:20;;;;;;;2.78;1.20;;;9.60;99.90;;;;;;4974147;28;20026;-77
2023/11/26 04:42:46;;;;;;;1.70;1.30;;;9.60;99.90;;;;;;4972257;28;20468;-79
2023/11/26 04:45:12;;;;;;;1.65;1.30;;;9.60;99.90;;;;;;4973694;28;20043;-78
2023/11/26 04:47:37;;;;;;;2.72;1.63;;;9.60;99.90;;;;;;4972743;28;20429;-78
2023/11/26 04:50:04;;;;;;;1.27;1.17;;;9.60;99.90;;;;;;4973858;28;20507;-78
2023/11/26 04:52:31;;;;;;;1.67;1.25;;;9.60;99.90;;;;;;4973808;28;20033;-77
2023/11/26 04:54:57;;;;;;;2.30;1.52;;;9.60;99.90;;;;;;4973729;28;20015;-79
2023/11/26 04:57:22;;;;;;;1.27;1.17;;;9.60;99.90;;;;;;4979154;28;20069;-78
2023/11/26 04:59:48;;;;;;;2.22;1.40;;;9.60;99.90;;;;;;4973085;28;20157;-78
2023/11/26 05:02:14;;;;;;;2.72;1.30;;;9.60;99.90;;;;;;4973906;28;20101;-78
2023/11/26 05:04:40;;;;;;;1.58;1.20;;;9.60;99.90;;;;;;4973256;28;20023;-78
2023/11/26 05:07:06;;;;;;;1.67;1.20;;;9.60;99.90;;;;;;4973902;28;20038;-77
2023/11/26 05:09:32;;;;;;;1.35;1.10;;;9.60;99.90;;;;;;4974841;28;20169;-78
2023/11/26 05:12:01;;;;;;;1.58;1.40;;;9.60;99.90;;;;;;4974955;28;20019;-79
2023/11/26 05:14:27;;;;;;;1.92;1.30;;;9.60;99.90;;;;;;4973363;28;20057;-77
2023/11/26 05:16:53;;;;;;;1.48;1.35;;;9.60;99.90;;;;;;4973820;28;20429;-79
2023/11/26 05:19:19;;;;;;;4.75;1.60;;;9.60;99.90;;;;;;4971983;28;20030;-78
2023/11/26 05:21:45;;;;;;;1.17;1.08;;;9.60;99.90;;;;;;4973832;28;20026;-78
2023/11/26 05:24:11;;;;;;;2.10;1.48;;;9.60;99.90;;;;;;4973635;28;20113;-78
2023/11/26 05:26:36;;;;;;;1.60;1.30;;;9.60;99.90;;;;;;4972132;28;20026;-79
2023/11/26 05:29:03;;;;;;;2.85;1.63;;;9.60;99.90;;;;;;4973306;28;20035;-78
2023/11/26 05:31:29;;;;;;;1.77;1.55;;;9.60;99.90;;;;;;4973192;28;20026;-79
2023/11/26 05:33:54;;;;;;;2.35;1.52;;;9.60;99.90;;;;;;4973127;28;20433;-78
2023/11/26 05:36:20;;;;;;;1.50;1.40;;;9.60;99.90;;;;;;4970514;28;20014;-77
2023/11/26 05:38:46;;;;;;;1.67;1.13;;;9.60;99.90;;;;;;4971655;28;20201;-78
2023/11/26 05:41:12;;;;;;;2.78;1.30;;;9.60;99.90;;;;;;4973633;28;20081;-78
2023/11/26 05:43:38;;;;;;;3.47;1.42;;;9.50;99.90;;;;;;4973293;28;20030;-77
2023/11/26 05:46:07;;;;;;;2.05;1.40;;;9.60;99.90;;;;;;4974978;28;20026;-78
2023/11/26 05:48:33;;;;;;;2.73;1.20;;;9.60;99.90;;;;;;4972714;28;20031;-78
2023/11/26 05:50:59;;;;;;;1.98;1.38;;;9.60;99.90;;;;;;4975373;28;20049;-78
2023/11/26 05:53:25;;;;;;;2.03;1.15;;;9.60;99.90;;;;;;4972406;28;20484;-78
2023/11/26 05:55:51;;;;;;;3.80;1.45;;;9.60;99.90;;;;;;4972317;28;20026;-80
2023/11/26 05:58:16;;;;;;;1.80;1.48;;;9.60;99.90;;;;;;4975293;28;20023;-78
2023/11/26 06:00:42;;;;;;;1.17;1.08;;;9.60;99.90;;;;;;4972970;28;20065;-78
2023/11/26 06:03:08;;;;;;;3.72;1.48;;;9.60;99.90;;;;;;4972822;28;20030;-78
2023/11/26 06:05:35;;;;;;;1.60;1.40;;;9.60;99.90;;;;;;4972479;28;20035;-79
2023/11/26 06:08:02;;;;;;;4.65;1.50;;;9.60;99.90;;;;;;4973104;28;20563;-78
2023/11/26 06:10:27;;;;;;;1.70;1.50;;;9.60;99.90;;;;;;4972823;28;20031;-78
2023/11/26 06:12:53;;;;;;;2.35;1.42;;;9.60;99.90;;;;;;4972277;28;20042;-78
2023/11/26 06:15:19;;;;;;;2.13;1.08;;;9.60;99.90;;;;;;4970778;28;20019;-78
2023/11/26 06:17:45;;;;;;;1.92;1.30;;;9.50;99.90;;;;;;4972302;28;20069;-78
2023/11/26 06:20:11;;;;;;;2.33;1.50;;;9.60;99.90;;;;;;4972226;28;20146;-79
2023/11/26 06:22:36;;;;;;;2.72;1.42;;;9.60;99.90;;;;;;4975763;28;20031;-78
2023/11/26 06:25:03;;;;;;;1.48;1.13;;;9.50;99.90;;;;;;4972034;28;20029;-78
2023/11/26 06:27:31;;;;;;;2.13;1.38;;;9.60;99.90;;;;;;4969073;28;20026;-81
2023/11/26 06:29:58;;;;;;;1.52;1.42;;;9.50;99.90;;;;;;4974092;28;20032;-79
2023/11/26 06:32:24;;;;;;;5.22;1.30;;;9.50;99.90;;;;;;4971041;28;20018;-79
2023/11/26 06:34:49;;;;;;;2.55;1.50;;;9.50;99.90;;;;;;4972094;28;20051;-78
2023/11/26 06:37:15;;;;;;;2.13;1.50;;;9.50;99.90;;;;;;4969852;28;20019;-78
2023/11/26 06:39:40;;;;;;;1.90;1.35;;;9.60;99.90;;;;;;4971408;28;20031;-78
2023/11/26 06:42:06;;;;;;;2.22;1.42;;;9.50;99.90;;;;;;4975107;28;20026;-79
2023/11/26 06:44:31;;;;;;;1.50;1.10;;;9.60;99.90;;;;;;4975615;28;20692;-79
2023/11/26 06:46:59;;;;;;;1.70;1.13;;;9.50;99.90;;;;;;4975437;28;20444;-78
2023/11/26 06:49:24;;;;;;;3.22;1.65;;;9.50;99.90;;;;;;4971187;28;20073;-78
2023/11/26 06:51:53;;;;;;;2.05;1.40;;;9.50;99.90;;;;;;4976604;28;20048;-79
2023/11/26 06:54:18;;;;;;;9.55;1.55;;;9.60;99.90;;;;;;4974504;28;20023;-78
2023/11/26 06:56:44;;;;;;;1.77;1.60;;;9.50;99.90;;;;;;4974555;28;20050;-78
2023/11/26 06:59:09;;;;;;;1.92;1.30;;;9.60;99.90;;;;;;4977662;28;20030;-77
2023/11/26 07:01:36;;;;;;;2.00;1.60;;;9.50;99.90;;;;;;4975155;28;20043;-77
2023/11/26 07:04:01;;;;;;;1.45;1.30;;;9.50;99.90;;;;;;4975548;28;20554;-78
2023/11/26 07:06:27;;;;;;;2.97;1.70;;;9.50;99.90;;;;;;4974718;28;20043;-79
2023/11/26 07:08:52;;;;;;;2.97;1.48;;;9.60;99.90;;;;;;4975694;28;20060;-79
2023/11/26 07:11:20;;;;;;;2.70;1.52;;;9.60;99.90;;;;;;4973892;28;20034;-78
2023/11/26 07:13:47;;;;;;;2.58;1.65;;;9.50;99.90;;;;;;4977735;28;20074;-78
2023/11/26 07:16:13;;;;;;;4.13;1.52;;;9.50;99.90;;;;;;4980614;28;20042;-78
2023/11/26 07:18:39;;;;;;;1.50;1.38;;;9.60;99.90;;;;;;4980779;28;20476;-79
2023/11/26 07:21:05;;;;;;;2.75;1.30;;;9.50;99.90;;;;;;4976955;28;20019;-77
2023/11/26 07:23:31;;;;;;;6.65;1.38;;;9.60;99.90;;;;;;4975291;28;20049;-78
2023/11/26 07:25:57;;;;;;;1.80;1.65;;;9.60;99.90;;;;;;4973712;28;20054;-78
2023/11/26 07:28:22;;;;;;;4.40;1.55;;;9.60;99.90;;;;;;4973932;28;20061;-79
2023/11/26 07:30:48;;;;;;;3.78;1.52;;;9.60;99.90;;;;;;4974803;28;20044;-78
2023/11/26 07:33:13;;;;;;;2.95;1.50;;;9.60;99.90;;;;;;4975038;28;20023;-79
2023/11/26 07:35:39;;;;;;;1.65;1.42;;;9.60;99.90;;;;;;4974919;28;20027;-78
2023/11/26 07:38:06;;;;;;;3.28;1.80;;;9.70;99.90;;;;;;4978165;28;20088;-77
2023/11/26 07:40:32;;;;;;;2.80;1.75;;;9.70;99.90;;;;;;4975439;28;20079;-78
2023/11/26 07:42:59;;;;;;;5.65;1.52;;;9.70;99.90;;;;;;4974752;28;20073;-78
2023/11/26 07:45:25;;;;;;;2.60;1.77;;;9.70;99.90;;;;;;4974816;28;20027;-78
2023/11/26 07:47:50;;;;;;;2.03;1.40;;;9.70;99.90;;;;;;4974429;28;20454;-78
2023/11/26 07:50:16;;;;;;;2.67;1.45;;;9.70;99.90;;;;;;4972212;28;20019;-78
2023/11/26 07:52:41;;;;;;;2.22;1.40;;;9.70;99.90;;;;;;4973811;28;20027;-76
2023/11/26 07:55:07;;;;;;;1.75;1.60;;;9.70;99.90;;;;;;4974540;28;20081;-78
2023/11/26 07:57:34;;;;;;;4.20;1.80;;;9.70;99.90;;;;;;4974566;28;20109;-78
2023/11/26 08:00:00;;;;;;;1.98;1.42;;;9.70;99.90;;;;;;4972341;28;20034;-78
2023/11/26 08:02:26;;;;;;;2.17;1.67;;;9.70;99.90;;;;;;4968015;28;20117;-77
2023/11/26 08:04:53;;;;;;;1.95;1.52;;;9.70;99.90;;;;;;4968814;28;20590;-77
2023/11/26 08:07:26;;;;;;;3.67;1.52;;;9.70;99.90;;;;;;4973211;28;20499;-78
2023/11/26 08:09:53;;;;;;;3.83;1.70;;;9.70;99.90;;;;;;4971896;28;20036;-78
2023/11/26 08:12:23;;;;;;;2.00;1.50;;;9.70;99.90;;;;;;4974885;28;20023;-75
2023/11/26 08:14:52;;;;;;;2.20;1.60;;;9.70;99.90;;;;;;4975766;28;20073;-77
2023/11/26 08:17:18;;;;;;;2.45;1.40;;;9.80;99.90;;;;;;4976302;28;20034;-79
2023/11/26 08:19:45;;;;;;;3.63;1.75;;;9.80;99.90;;;;;;4976149;28;20026;-77
2023/11/26 08:22:12;;;;;;;2.88;1.98;;;9.80;99.90;;;;;;4974062;28;20045;-77
2023/11/26 08:28:01;;;;;;;1.42;1.33;;;9.70;99.90;;;;;;4962650;28;20515;-79
2023/11/26 08:30:39;;;;;;;7.82;1.50;;;9.80;99.90;;;;;;4970816;28;20038;-78
2023/11/26 08:33:05;;;;;;;2.55;1.33;;;9.90;99.90;;;;;;4972708;28;20015;-77
2023/11/26 08:35:32;;;;;;;2.90;1.50;;;9.80;99.90;;;;;;4970584;28;20037;-78
2023/11/26 08:38:00;;;;;;;2.53;1.67;;;9.90;99.90;;;;;;4970065;28;20097;-79
2023/11/26 08:40:26;;;;;;;4.05;2.03;;;9.90;99.90;;;;;;4973539;28;20089;-79
2023/11/26 08:42:54;;;;;;;2.22;1.80;;;9.90;99.90;;;;;;4971499;28;20031;-77
2023/11/26 08:45:21;;;;;;;2.35;1.60;;;9.90;99.90;;;;;;4972552;28;20023;-78
2023/11/26 08:47:47;;;;;;;2.67;1.50;;;9.90;99.90;;;;;;4972478;28;20370;-77
2023/11/26 08:50:13;;;;;;;3.95;1.33;;;9.90;99.90;;;;;;4971280;28;20035;-78
2023/11/26 08:52:39;;;;;;;2.90;1.45;;;9.90;99.90;;;;;;4971330;28;20037;-77
2023/11/26 08:55:05;;;;;;;3.13;2.13;;;9.90;99.90;;;;;;4967922;28;20030;-78
2023/11/26 08:57:31;;;;;;;3.05;1.58;;;9.90;99.90;;;;;;4973498;28;20099;-79
2023/11/26 08:59:57;;;;;;;3.45;1.75;;;9.80;99.90;;;;;;4972096;28;20568;-79
2023/11/26 09:02:26;;;;;;;4.43;2.20;;;9.90;99.90;;;;;;4970708;28;20119;-77
2023/11/26 09:04:52;;;;;;;2.17;1.58;;;9.80;99.90;;;;;;4971203;28;20103;-78
2023/11/26 09:07:18;;;;;;;4.03;1.90;;;9.80;99.90;;;;;;4975084;28;20055;-77
2023/11/26 09:09:44;;;;;;;6.25;2.00;;;9.80;99.90;;;;;;4972237;28;20035;-78
2023/11/26 09:12:09;;;;;;;4.72;1.60;;;9.80;99.90;;;;;;4969966;28;20034;-78
2023/11/26 09:14:35;;;;;;;2.67;1.77;;;9.80;99.90;;;;;;4971672;28;20030;-78
2023/11/26 09:17:01;;;;;;;5.22;1.67;;;9.80;99.90;;;;;;4971871;28;20455;-75
2023/11/26 09:19:27;;;;;;;4.53;1.88;;;9.80;99.90;;;;;;4973598;28;20023;-77
2023/11/26 09:21:53;;;;;;;5.10;1.50;;;9.70;99.90;;;;;;4972064;28;20138;-79
2023/11/26 09:24:19;;;;;;;6.05;1.65;;;9.80;99.90;;;;;;4971648;28;20023;-78
2023/11/26 09:26:45;;;;;;;3.88;1.70;;;9.70;99.90;;;;;;4969904;28;20488;-77
2023/11/26 09:29:12;;;;;;;2.08;1.42;;;9.70;99.90;;;;;;4971222;28;20476;-77
2023/11/26 09:31:44;;;;;;;3.03;1.52;;;9.70;99.90;;;;;;4970782;28;20027;-77
2023/11/26 09:34:10;;;;;;;4.07;1.52;;;9.70;99.90;;;;;;4971522;28;20034;-78
2023/11/26 09:36:42;;;;;;;3.50;1.70;;;9.70;99.90;;;;;;4971913;28;20026;-79
2023/11/26 09:39:08;;;;;;;3.00;1.75;;;9.70;99.90;;;;;;4967982;28;20023;-79
2023/11/26 09:41:33;;;;;;;2.20;1.40;;;9.70;99.90;;;;;;4971644;28;20121;-78
2023/11/26 09:43:59;;;;;;;3.08;1.38;;;9.70;99.90;;;;;;4971178;28;20031;-78
2023/11/26 09:46:27;;;;;;;2.20;1.92;;;9.70;99.90;;;;;;4970724;28;20027;-78
2023/11/26 09:48:53;;;;;;;1.30;1.20;;;9.70;99.90;;;;;;4971775;28;20034;-78
2023/11/26 09:51:21;;;;;;;1.88;1.45;;;9.60;99.90;;;;;;4970139;28;20042;-79
2023/11/26 09:53:46;;;;;;;3.20;1.88;;;9.60;99.90;;;;;;4971177;28;20065;-78
2023/11/26 09:56:12;;;;;;;4.05;1.75;;;9.60;99.90;;;;;;4971591;28;20054;-78
2023/11/26 09:58:41;;;;;;;3.15;2.00;;;9.70;99.90;;;;;;4975952;28;20135;-78
2023/11/26 10:01:07;;;;;;;3.08;1.70;;;9.70;99.90;;;;;;4972357;28;20039;-78
2023/11/26 10:04:05;;;;;;;2.25;1.80;;;9.70;99.90;;;;;;4970761;28;20070;-77
2023/11/26 10:06:31;;;;;;;4.15;1.85;;;9.70;99.90;;;;;;4970874;28;20042;-78
2023/11/26 10:08:58;;;;;;;4.07;1.65;;;9.70;99.90;;;;;;4971792;28;20161;-77
2023/11/26 10:11:26;;;;;;;1.77;1.58;;;10.90;99.90;;;;;;4973276;28;20030;-78
2023/11/26 10:13:53;;;;;;;1.67;1.38;;;10.40;99.90;;;;;;4972975;28;20026;-78
2023/11/26 10:16:34;;;;;;;3.42;1.30;;;10.20;99.90;;;;;;4986141;28;20109;-76
2023/11/26 10:19:03;;;;;;;2.20;1.60;;;10.00;99.90;;;;;;4974026;28;20030;-78
2023/11/26 10:21:31;;;;;;;1.67;1.53;;;10.00;99.90;;;;;;4990614;28;20023;-77
2023/11/26 10:23:59;;;;;;;1.83;1.50;;;10.00;99.90;;;;;;4975753;28;20782;-80
2023/11/26 10:26:29;;;;;;;5.53;1.80;;;9.90;99.90;;;;;;4974439;28;20030;-77
2023/11/26 10:29:09;;;;;;;2.55;1.73;;;9.90;99.90;;;;;;4975148;28;20023;-78
2023/11/26 10:31:39;;;;;;;2.92;1.67;;;9.90;99.90;;;;;;4974782;28;20022;-78
2023/11/26 10:34:14;;;;;;;3.92;2.00;;;9.90;99.90;;;;;;4987642;28;20053;-77
2023/11/26 10:36:41;;;;;;;3.65;2.03;;;9.90;99.90;;;;;;4973402;28;20043;-77
2023/11/26 10:39:09;;;;;;;2.80;1.92;;;9.90;99.90;;;;;;4973963;28;20019;-78
2023/11/26 10:41:35;;;;;;;3.63;2.13;;;10.00;99.90;;;;;;4977125;28;20027;-78
2023/11/26 10:44:02;;;;;;;4.82;1.85;;;9.90;99.90;;;;;;4974178;28;20484;-78
2023/11/26 10:46:33;;;;;;;2.08;1.70;;;10.00;99.90;;;;;;4975010;28;20086;-77
2023/11/26 10:49:11;;;;;;;2.60;1.90;;;9.90;99.90;;;;;;4974881;28;20019;-78
2023/11/26 10:51:41;;;;;;;3.42;1.80;;;9.90;99.90;;;;;;4973979;28;20660;-79
2023/11/26 10:54:14;;;;;;;2.97;1.90;;;9.90;99.90;;;;;;4971734;28;20031;-78
2023/11/26 10:56:41;;;;;;;2.60;1.90;;;9.90;99.90;;;;;;4977894;28;20023;-78
2023/11/26 10:59:17;;;;;;;3.90;1.90;;;9.90;99.90;;;;;;4974873;28;20042;-78
2023/11/26 11:01:44;;;;;;;2.65;2.03;;;9.90;99.90;;;;;;4972965;28;20042;-78
2023/11/26 11:04:13;;;;;;;3.30;2.00;;;9.90;99.90;;;;;;4974944;28;20054;-77
2023/11/26 11:06:39;;;;;;;3.80;2.10;;;9.90;99.90;;;;;;4990798;28;20027;-78
2023/11/26 11:09:05;;;;;;;2.22;1.55;;;9.90;99.90;;;;;;4975051;28;20034;-79
2023/11/26 11:11:56;;;;;;;2.88;2.05;;;9.90;99.90;;;;;;4974868;28;20511;-79
2023/11/26 11:14:24;;;;;;;3.08;1.75;;;9.90;99.90;;;;;;4975647;28;20091;-78
2023/11/26 11:16:49;;;;;;;2.95;2.05;;;10.00;99.90;;;;;;4974904;28;20025;-77
2023/11/26 11:19:52;;;;;;;6.97;2.38;;;9.90;99.90;;;;;;4981511;28;20110;-78
2023/11/26 11:22:18;;;;;;;2.65;1.98;;;10.00;99.90;;;;;;4973454;28;20058;-78
2023/11/26 11:24:44;;;;;;;2.85;2.10;;;10.00;99.90;;;;;;4974973;28;20034;-77
2023/11/26 11:27:09;;;;;;;2.28;2.00;;;10.00;99.90;;;;;;4974470;28;20089;-78
2023/11/26 11:29:35;;;;;;;6.60;2.45;;;10.00;99.90;;;;;;4971916;28;20023;-78
2023/11/26 11:32:04;;;;;;;5.25;2.45;;;9.90;99.90;;;;;;4973873;28;20113;-77
2023/11/26 11:34:30;;;;;;;3.08;1.90;;;9.90;99.90;;;;;;4973260;28;20054;-79
2023/11/26 11:36:58;;;;;;;3.28;1.88;;;9.90;99.90;;;;;;4974377;28;20025;-77
2023/11/26 11:39:41;;;;;;;6.50;2.40;;;9.90;99.90;;;;;;4989337;28;20435;-78
2023/11/26 11:42:08;;;;;;;3.53;2.45;;;9.90;99.90;;;;;;4986486;28;20544;-77
2023/11/26 11:44:36;;;;;;;3.20;2.03;;;10.00;99.90;;;;;;4972924;28;20084;-80
2023/11/26 11:47:03;;;;;;;2.88;2.20;;;10.00;99.90;;;;;;4969784;28;20053;-79
2023/11/26 11:49:51;;;;;;;4.60;1.77;;;10.00;99.90;;;;;;4974919;28;20050;-76
2023/11/26 11:52:17;;;;;;;5.35;2.33;;;10.00;99.90;;;;;;4966551;28;20055;-78
2023/11/26 11:54:55;;;;;;;2.95;2.20;;;10.00;99.90;;;;;;4974317;28;20123;-77
2023/11/26 11:57:24;;;;;;;5.85;2.00;;;10.00;99.90;;;;;;4970574;28;20030;-76
2023/11/26 11:59:51;;;;;;;4.68;2.65;;;10.00;99.90;;;;;;4966892;28;20139;-78
2023/11/26 12:02:18;;;;;;;4.75;2.70;;;10.10;99.90;;;;;;4970032;28;20034;-78
2023/11/26 12:04:48;;;;;;;5.05;2.50;;;10.10;99.90;;;;;;4964487;28;20441;-77
2023/11/26 12:07:16;;;;;;;5.72;2.60;;;10.00;99.90;;;;;;4968608;28;20082;-76
2023/11/26 12:09:42;;;;;;;3.63;2.05;;;10.00;99.90;;;;;;4967011;28;20484;-77
2023/11/26 12:12:08;;;;;;;3.40;2.28;;;10.10;99.90;;;;;;4969949;28;20023;-77
2023/11/26 12:14:35;;;;;;;3.72;2.42;;;10.10;99.90;;;;;;4969858;28;20097;-78
2023/11/26 12:17:06;;;;;;;3.13;2.08;;;10.10;99.90;;;;;;4968307;28;20077;-79
2023/11/26 12:19:36;;;;;;;3.85;2.50;;;10.10;99.90;;;;;;4970804;28;20023;-78
2023/11/26 12:22:04;;;;;;;7.07;2.30;;;10.00;99.90;;;;;;4983227;28;20050;-77
2023/11/26 12:24:30;;;;;;;4.32;2.20;;;10.00;99.90;;;;;;4968502;28;20038;-77
2023/11/26 12:26:55;;;;;;;3.15;2.58;;;10.00;99.90;;;;;;4970391;28;20110;-78
2023/11/26 12:29:28;;;;;;;7.03;2.60;;;10.00;99.90;;;;;;4970262;28;20101;-78
2023/11/26 12:32:00;;;;;;;3.45;2.35;;;10.00;99.90;;;;;;4969059;28;20439;-77
2023/11/26 12:34:26;;;;;;;3.75;2.20;;;10.00;99.90;;;;;;4972254;28;20031;-77
2023/11/26 12:36:52;;;;;;;5.32;2.22;;;10.00;99.90;;;;;;4972054;28;20054;-78
2023/11/26 12:39:19;;;;;;;6.47;2.83;;;9.90;99.90;;;;;;4972768;28;20014;-74
2023/11/26 12:41:48;;;;;;;6.25;2.70;;;9.90;99.90;;;;;;4977560;28;20033;-77
2023/11/26 12:44:14;;;;;;;3.08;1.98;;;9.90;99.90;;;;;;4973171;28;20066;-77
2023/11/26 12:46:40;;;;;;;3.97;2.10;;;9.90;99.90;;;;;;4971706;28;20085;-78
2023/11/26 12:49:21;;;;;;;6.70;2.47;;;9.90;99.90;;;;;;4970966;28;20035;-78
2023/11/26 12:51:52;;;;;;;2.17;1.70;;;9.90;99.90;;;;;;4970863;28;20030;-79
2023/11/26 12:54:18;;;;;;;1.70;1.58;;;9.90;99.90;;;;;;4969015;28;20519;-79
2023/11/26 12:56:45;;;;;;;4.60;2.20;;;9.80;99.90;;;;;;4969678;28;20019;-78
2023/11/26 12:59:10;;;;;;;5.22;1.92;;;9.80;99.90;;;;;;4970745;28;20046;-78
2023/11/26 13:01:37;;;;;;;4.03;2.15;;;9.80;99.90;;;;;;4971044;28;20035;-77